sensor_id;sensor_type;location;lat;lon;timestamp;temperature;humidity
10728;DHT22;5415;59.322;18.246;2023-02-27T16:54:16;1.60;99.90
10728;DHT22;5415;59.322;18.246;2023-02-27T16:56:45;1.70;99.90
10728;DHT22;5415;59.322;18.246;2023-02-27T16:59:25;1.60;99.90
10728;DHT22;5415;59.322;18.246;2023-02-27T17:01:53;1.30;99.90
10728;DHT22;5415;59.322;18.246;2023-02-27T17:04:21;1.00;99.90
10728;DHT22;5415;59.322;18.246;2023-02-27T17:06:48;0.80;99.90
10728;DHT22;5415;59.322;18.246;2023-02-27T17:09:18;0.80;99.90
10728;DHT22;5415;59.322;18.246;2023-02-27T17:11:48;0.70;99.90
10728;DHT22;5415;59.322;18.246;2023-02-27T17:14:15;1.20;99.90
10728;DHT22;5415;59.322;18.246;2023-02-27T17:16:43;0.50;99.90
10728;DHT22;5415;59.322;18.246;2023-02-27T17:19:12;0.60;99.90
10728;DHT22;5415;59.322;18.246;2023-02-27T17:21:40;0.50;99.90
10728;DHT22;5415;59.322;18.246;2023-02-27T17:24:08;0.40;99.90
10728;DHT22;5415;59.322;18.246;2023-02-27T17:26:36;0.30;99.90
10728;DHT22;5415;59.322;18.246;2023-02-27T17:29:03;0.40;99.90
10728;DHT22;5415;59.322;18.246;2023-02-27T17:31:31;0.30;99.90
10728;DHT22;5415;59.322;18.246;2023-02-27T17:33:58;0.20;99.90
10728;DHT22;5415;59.322;18.246;2023-02-27T17:36:27;0.40;99.90
10728;DHT22;5415;59.322;18.246;2023-02-27T17:38:55;0.40;99.90
10728;DHT22;5415;59.322;18.246;2023-02-27T17:41:23;0.40;99.90
10728;DHT22;5415;59.322;18.246;2023-02-27T17:43:52;0.40;99.90
10728;DHT22;5415;59.322;18.246;2023-02-27T17:46:22;0.50;99.90
10728;DHT22;5415;59.322;18.246;2023-02-27T17:48:49;0.70;99.90
10728;DHT22;5415;59.322;18.246;2023-02-27T17:51:17;0.70;99.90
10728;DHT22;5415;59.322;18.246;2023-02-27T17:53:45;0.70;99.90
10728;DHT22;5415;59.322;18.246;2023-02-27T17:56:13;0.80;99.90
10728;DHT22;5415;59.322;18.246;2023-02-27T17:58:40;0.60;99.90
10728;DHT22;5415;59.322;18.246;2023-02-27T18:01:13;0.70;99.90
10728;DHT22;5415;59.322;18.246;2023-02-27T18:03:42;1.10;99.90
10728;DHT22;5415;59.322;18.246;2023-02-27T18:06:12;0.50;99.90
10728;DHT22;5415;59.322;18.246;2023-02-27T18:08:39;0.40;99.90
10728;DHT22;5415;59.322;18.246;2023-02-27T18:11:08;0.60;99.90
10728;DHT22;5415;59.322;18.246;2023-02-27T18:13:36;1.00;99.90
10728;DHT22;5415;59.322;18.246;2023-02-27T18:16:04;1.60;99.90
10728;DHT22;5415;59.322;18.246;2023-02-27T18:18:34;0.90;99.90
10728;DHT22;5415;59.322;18.246;2023-02-27T18:21:06;1.40;99.90
10728;DHT22;5415;59.322;18.246;2023-02-27T18:23:34;0.80;99.90
10728;DHT22;5415;59.322;18.246;2023-02-27T18:26:02;0.90;99.90
10728;DHT22;5415;59.322;18.246;2023-02-27T18:28:29;1.00;99.90
10728;DHT22;5415;59.322;18.246;2023-02-27T18:30:57;1.00;99.90
10728;DHT22;5415;59.322;18.246;2023-02-27T18:33:25;1.10;99.90
10728;DHT22;5415;59.322;18.246;2023-02-27T18:35:54;1.30;99.90
10728;DHT22;5415;59.322;18.246;2023-02-27T18:38:22;1.10;99.90
10728;DHT22;5415;59.322;18.246;2023-02-27T18:40:49;1.10;99.90
10728;DHT22;5415;59.322;18.246;2023-02-27T18:43:16;1.20;99.90
10728;DHT22;5415;59.322;18.246;2023-02-27T18:45:43;1.10;99.90
10728;DHT22;5415;59.322;18.246;2023-02-27T18:48:11;1.10;99.90
10728;DHT22;5415;59.322;18.246;2023-02-27T18:50:40;1.00;99.90
10728;DHT22;5415;59.322;18.246;2023-02-27T18:53:09;0.60;99.90
10728;DHT22;5415;59.322;18.246;2023-02-27T18:55:36;0.50;99.90
10728;DHT22;5415;59.322;18.246;2023-02-27T18:58:03;0.30;99.90
10728;DHT22;5415;59.322;18.246;2023-02-27T19:00:30;0.80;99.90
10728;DHT22;5415;59.322;18.246;2023-02-27T19:02:58;0.20;99.90
10728;DHT22;5415;59.322;18.246;2023-02-27T19:05:25;0.10;99.90
10728;DHT22;5415;59.322;18.246;2023-02-27T19:07:52;0.20;99.90
10728;DHT22;5415;59.322;18.246;2023-02-27T19:10:21;0.70;99.90
10728;DHT22;5415;59.322;18.246;2023-02-27T19:12:48;0.90;99.90
10728;DHT22;5415;59.322;18.246;2023-02-27T19:15:16;0.50;99.90
10728;DHT22;5415;59.322;18.246;2023-02-27T19:17:44;0.20;99.90
10728;DHT22;5415;59.322;18.246;2023-02-27T19:20:12;0.00;99.90
10728;DHT22;5415;59.322;18.246;2023-02-27T19:22:41;0.30;99.90
10728;DHT22;5415;59.322;18.246;2023-02-27T19:25:09;0.30;99.90
10728;DHT22;5415;59.322;18.246;2023-02-27T19:27:42;0.30;99.90
10728;DHT22;5415;59.322;18.246;2023-02-27T19:30:11;0.10;99.90
10728;DHT22;5415;59.322;18.246;2023-02-27T19:32:39;0.00;99.90
10728;DHT22;5415;59.322;18.246;2023-02-27T19:35:07;0.30;99.90
10728;DHT22;5415;59.322;18.246;2023-02-27T19:37:38;0.60;99.90
10728;DHT22;5415;59.322;18.246;2023-02-27T19:40:07;0.70;99.90
10728;DHT22;5415;59.322;18.246;2023-02-27T19:42:35;0.70;99.90
10728;DHT22;5415;59.322;18.246;2023-02-27T19:45:05;0.70;99.90
10728;DHT22;5415;59.322;18.246;2023-02-27T19:47:34;0.50;99.90
10728;DHT22;5415;59.322;18.246;2023-02-27T19:50:02;0.60;99.90
10728;DHT22;5415;59.322;18.246;2023-02-27T19:52:29;0.50;99.90
10728;DHT22;5415;59.322;18.246;2023-02-27T19:54:57;0.70;99.90
10728;DHT22;5415;59.322;18.246;2023-02-27T19:57:24;0.60;99.90
10728;DHT22;5415;59.322;18.246;2023-02-27T19:59:52;0.70;99.90
10728;DHT22;5415;59.322;18.246;2023-02-27T20:02:22;0.60;99.90
10728;DHT22;5415;59.322;18.246;2023-02-27T20:04:51;0.70;99.90
10728;DHT22;5415;59.322;18.246;2023-02-27T20:07:19;0.60;99.90
10728;DHT22;5415;59.322;18.246;2023-02-27T20:09:46;0.60;99.90
10728;DHT22;5415;59.322;18.246;2023-02-27T20:12:13;0.60;99.90
10728;DHT22;5415;59.322;18.246;2023-02-27T20:14:41;0.50;99.90
10728;DHT22;5415;59.322;18.246;2023-02-27T20:17:09;1.00;99.90
10728;DHT22;5415;59.322;18.246;2023-02-27T20:19:38;0.30;99.90
10728;DHT22;5415;59.322;18.246;2023-02-27T20:22:06;0.30;99.90
10728;DHT22;5415;59.322;18.246;2023-02-27T20:24:33;0.50;99.90
10728;DHT22;5415;59.322;18.246;2023-02-27T20:27:01;0.50;99.90
10728;DHT22;5415;59.322;18.246;2023-02-27T20:29:29;0.50;99.90
10728;DHT22;5415;59.322;18.246;2023-02-27T20:31:57;1.00;99.90
10728;DHT22;5415;59.322;18.246;2023-02-27T20:34:25;0.40;99.90
10728;DHT22;5415;59.322;18.246;2023-02-27T20:36:56;0.30;99.90
10728;DHT22;5415;59.322;18.246;2023-02-27T20:39:25;0.20;99.90
10728;DHT22;5415;59.322;18.246;2023-02-27T20:41:53;0.20;99.90
10728;DHT22;5415;59.322;18.246;2023-02-27T20:44:22;0.50;99.90
10728;DHT22;5415;59.322;18.246;2023-02-27T20:46:50;0.20;99.90
10728;DHT22;5415;59.322;18.246;2023-02-27T20:49:17;0.20;99.90
10728;DHT22;5415;59.322;18.246;2023-02-27T20:51:45;0.40;99.90
10728;DHT22;5415;59.322;18.246;2023-02-27T20:54:15;0.90;99.90
10728;DHT22;5415;59.322;18.246;2023-02-27T20:56:46;0.40;99.90
10728;DHT22;5415;59.322;18.246;2023-02-27T20:59:17;0.40;99.90
10728;DHT22;5415;59.322;18.246;2023-02-27T21:01:45;0.50;99.90
10728;DHT22;5415;59.322;18.246;2023-02-27T21:04:17;0.70;99.90
10728;DHT22;5415;59.322;18.246;2023-02-27T21:06:45;0.90;99.90
10728;DHT22;5415;59.322;18.246;2023-02-27T21:09:14;0.80;99.90
10728;DHT22;5415;59.322;18.246;2023-02-27T21:11:42;0.70;99.90
10728;DHT22;5415;59.322;18.246;2023-02-27T21:14:10;1.10;99.90
10728;DHT22;5415;59.322;18.246;2023-02-27T21:16:39;0.40;99.90
10728;DHT22;5415;59.322;18.246;2023-02-27T21:19:07;0.40;99.90
10728;DHT22;5415;59.322;18.246;2023-02-27T21:21:35;0.40;99.90
10728;DHT22;5415;59.322;18.246;2023-02-27T21:24:03;0.60;99.90
10728;DHT22;5415;59.322;18.246;2023-02-27T21:26:34;0.60;99.90
10728;DHT22;5415;59.322;18.246;2023-02-27T21:29:04;0.70;99.90
10728;DHT22;5415;59.322;18.246;2023-02-27T21:31:33;0.70;99.90
10728;DHT22;5415;59.322;18.246;2023-02-27T21:34:02;0.60;99.90
10728;DHT22;5415;59.322;18.246;2023-02-27T21:36:34;0.50;99.90
10728;DHT22;5415;59.322;18.246;2023-02-27T21:39:03;0.50;99.90
10728;DHT22;5415;59.322;18.246;2023-02-27T21:41:37;0.40;99.90
10728;DHT22;5415;59.322;18.246;2023-02-27T21:44:06;0.30;99.90
10728;DHT22;5415;59.322;18.246;2023-02-27T21:46:36;0.20;99.90
10728;DHT22;5415;59.322;18.246;2023-02-27T21:49:04;0.30;99.90
10728;DHT22;5415;59.322;18.246;2023-02-27T21:51:31;0.40;99.90
10728;DHT22;5415;59.322;18.246;2023-02-27T21:54:01;0.20;99.90
10728;DHT22;5415;59.322;18.246;2023-02-27T21:56:29;0.30;99.90
10728;DHT22;5415;59.322;18.246;2023-02-27T21:59:00;0.30;99.90
10728;DHT22;5415;59.322;18.246;2023-02-27T22:01:29;0.20;99.90
10728;DHT22;5415;59.322;18.246;2023-02-27T22:03:57;0.20;99.90
10728;DHT22;5415;59.322;18.246;2023-02-27T22:06:26;0.30;99.90
10728;DHT22;5415;59.322;18.246;2023-02-27T22:08:55;0.60;99.90
10728;DHT22;5415;59.322;18.246;2023-02-27T22:11:24;0.10;99.90
10728;DHT22;5415;59.322;18.246;2023-02-27T22:13:53;0.10;99.90
10728;DHT22;5415;59.322;18.246;2023-02-27T22:16:22;0.00;99.90
10728;DHT22;5415;59.322;18.246;2023-02-27T22:18:50;0.10;99.90
10728;DHT22;5415;59.322;18.246;2023-02-27T22:21:19;0.20;99.90
10728;DHT22;5415;59.322;18.246;2023-02-27T22:23:48;0.00;99.90
10728;DHT22;5415;59.322;18.246;2023-02-27T22:26:18;0.60;99.90
10728;DHT22;5415;59.322;18.246;2023-02-27T22:28:47;0.00;99.90
10728;DHT22;5415;59.322;18.246;2023-02-27T22:31:16;0.20;99.90
10728;DHT22;5415;59.322;18.246;2023-02-27T22:33:49;0.00;99.90
10728;DHT22;5415;59.322;18.246;2023-02-27T22:36:19;0.00;99.90
10728;DHT22;5415;59.322;18.246;2023-02-27T22:38:46;-0.10;99.90
10728;DHT22;5415;59.322;18.246;2023-02-27T22:41:16;0.00;99.90
10728;DHT22;5415;59.322;18.246;2023-02-27T22:43:44;0.10;99.90
10728;DHT22;5415;59.322;18.246;2023-02-27T22:46:13;0.10;99.90
10728;DHT22;5415;59.322;18.246;2023-02-27T22:48:42;0.10;99.90
10728;DHT22;5415;59.322;18.246;2023-02-27T22:51:13;0.20;99.90
10728;DHT22;5415;59.322;18.246;2023-02-27T22:53:41;0.20;99.90
10728;DHT22;5415;59.322;18.246;2023-02-27T22:56:12;0.10;99.90
10728;DHT22;5415;59.322;18.246;2023-02-27T22:58:40;0.10;99.90
10728;DHT22;5415;59.322;18.246;2023-02-27T23:01:09;0.20;99.90
10728;DHT22;5415;59.322;18.246;2023-02-27T23:03:38;0.30;99.90
10728;DHT22;5415;59.322;18.246;2023-02-27T23:06:08;0.30;99.90
10728;DHT22;5415;59.322;18.246;2023-02-27T23:08:40;0.10;99.90
10728;DHT22;5415;59.322;18.246;2023-02-27T23:11:08;0.50;99.90
10728;DHT22;5415;59.322;18.246;2023-02-27T23:13:35;0.40;99.90
10728;DHT22;5415;59.322;18.246;2023-02-27T23:16:04;0.40;99.90
10728;DHT22;5415;59.322;18.246;2023-02-27T23:18:36;0.40;99.90
10728;DHT22;5415;59.322;18.246;2023-02-27T23:21:04;0.30;99.90
10728;DHT22;5415;59.322;18.246;2023-02-27T23:23:33;0.40;99.90
10728;DHT22;5415;59.322;18.246;2023-02-27T23:26:02;0.70;99.90
10728;DHT22;5415;59.322;18.246;2023-02-27T23:28:34;0.50;99.90
10728;DHT22;5415;59.322;18.246;2023-02-27T23:31:02;1.20;99.90
10728;DHT22;5415;59.322;18.246;2023-02-27T23:33:30;0.60;99.90
10728;DHT22;5415;59.322;18.246;2023-02-27T23:35:58;1.10;99.90
10728;DHT22;5415;59.322;18.246;2023-02-27T23:38:27;0.50;99.90
10728;DHT22;5415;59.322;18.246;2023-02-27T23:40:55;0.50;99.90
10728;DHT22;5415;59.322;18.246;2023-02-27T23:43:25;0.70;99.90
10728;DHT22;5415;59.322;18.246;2023-02-27T23:45:52;0.50;99.90
10728;DHT22;5415;59.322;18.246;2023-02-27T23:48:20;1.00;99.90
10728;DHT22;5415;59.322;18.246;2023-02-27T23:50:48;1.50;99.90
10728;DHT22;5415;59.322;18.246;2023-02-27T23:53:17;1.20;99.90
10728;DHT22;5415;59.322;18.246;2023-02-27T23:55:45;1.20;99.90
10728;DHT22;5415;59.322;18.246;2023-02-27T23:58:14;1.30;99.90
